Time;durP1;ratioP1;P1;durP2;ratioP2;P2;SDS_P1;SDS_P2;PMS_P1;PMS_P2;Temp;Humidity;BMP_temperature;BMP_pressure;BME280_temperature;BME280_humidity;BME280_pressure;Samples;Min_cycle;Max_cycle;Signal;HPM_P1;HPM_P2
2023/02/24 00:00:30;;;;;;;20.87;13.77;;;5.30;99.90;6.30;96328.00;;;;5042481;28;20225;-86
2023/02/24 00:03:19;;;;;;;22.83;14.73;;;5.30;99.90;6.40;96326.00;;;;5041463;28;20209;-86
2023/02/24 00:06:10;;;;;;;20.73;15.67;;;5.30;99.90;6.60;96318.00;;;;5042713;28;20225;-86
2023/02/24 00:09:00;;;;;;;23.97;14.60;;;5.30;99.90;6.60;96320.00;;;;5043587;28;20675;-86
2023/02/24 00:11:56;;;;;;;21.23;14.37;;;5.30;99.90;6.60;96306.00;;;;5037436;28;20294;-86
2023/02/24 00:14:45;;;;;;;22.80;15.40;;;5.70;99.90;6.40;96323.00;;;;5036083;28;20197;-86
2023/02/24 00:17:37;;;;;;;20.60;13.00;;;5.30;99.90;6.10;96323.00;;;;5032505;28;20664;-86
2023/02/24 00:20:26;;;;;;;19.77;13.30;;;5.30;99.90;6.10;96307.00;;;;5032790;28;20220;-86
2023/02/24 00:23:17;;;;;;;24.10;14.63;;;5.20;99.90;6.30;96309.00;;;;5036125;28;20933;-86
2023/02/24 00:26:09;;;;;;;25.43;14.60;;;5.10;99.90;6.40;96301.00;;;;5036755;28;20673;-86
2023/02/24 00:28:59;;;;;;;21.70;13.60;;;5.30;99.90;6.20;96297.00;;;;5038448;28;20212;-86
2023/02/24 00:31:55;;;;;;;19.80;12.87;;;5.00;99.90;5.80;96286.00;;;;5038739;28;20208;-86
2023/02/24 00:34:46;;;;;;;24.03;13.60;;;5.00;99.90;5.80;96290.00;;;;5044376;28;20261;-86
2023/02/24 00:37:35;;;;;;;24.53;14.60;;;4.90;99.90;6.10;96289.00;;;;5029463;28;20233;-86
2023/02/24 00:40:25;;;;;;;18.13;12.93;;;5.20;99.90;6.20;96297.00;;;;5035076;28;20213;-86
2023/02/24 00:43:15;;;;;;;20.93;14.37;;;4.90;99.90;6.20;96287.00;;;;5035050;28;20189;-87
2023/02/24 00:46:09;;;;;;;20.10;13.83;;;5.40;99.90;6.20;96280.00;;;;5033597;28;20220;-87
2023/02/24 00:48:58;;;;;;;26.57;15.23;;;4.90;99.90;6.00;96285.00;;;;5042230;28;20193;-87
2023/02/24 00:51:53;;;;;;;24.13;15.00;;;6.40;99.90;6.00;96283.00;;;;5034657;28;20213;-86
2023/02/24 00:54:43;;;;;;;22.33;14.33;;;5.00;99.90;5.60;96284.00;;;;5036160;28;20687;-87
2023/02/24 00:57:34;;;;;;;23.30;15.27;;;4.80;99.90;5.70;96276.00;;;;5032923;28;20958;-86
2023/02/24 01:00:27;;;;;;;18.20;13.33;;;4.80;99.90;5.70;96272.00;;;;5032990;28;20225;-86
2023/02/24 01:03:16;;;;;;;20.60;14.77;;;4.70;99.90;5.90;96274.00;;;;5037665;28;20273;-86
2023/02/24 01:06:05;;;;;;;22.37;13.30;;;5.00;99.90;5.60;96277.00;;;;5031271;28;20225;-86
2023/02/24 01:08:56;;;;;;;23.37;15.07;;;4.60;99.90;5.80;96270.00;;;;5035612;28;20211;-86
2023/02/24 01:14:54;;;;;;;22.57;13.97;;;4.60;99.90;5.50;96265.00;;;;5029943;28;20209;-86
2023/02/24 01:17:44;;;;;;;24.90;12.50;;;4.60;99.90;5.80;96258.00;;;;5045303;28;20880;-87
2023/02/24 01:20:33;;;;;;;22.57;14.60;;;4.50;99.90;5.80;96248.00;;;;5035763;28;20237;-86
2023/02/24 01:23:23;;;;;;;21.70;13.60;;;4.70;99.90;5.80;96246.00;;;;5037799;28;20427;-86
2023/02/24 01:26:11;;;;;;;25.43;15.33;;;4.60;99.90;5.70;96243.00;;;;5035680;28;20229;-86
2023/02/24 01:29:00;;;;;;;22.67;13.87;;;5.20;99.90;5.80;96231.00;;;;5028229;28;20236;-86
2023/02/24 01:31:50;;;;;;;21.63;14.77;;;4.60;99.90;5.80;96230.00;;;;5032551;28;20350;-87
2023/02/24 01:34:41;;;;;;;24.87;15.23;;;4.50;99.90;5.80;96222.00;;;;5033661;28;20197;-86
2023/02/24 01:37:30;;;;;;;20.03;13.73;;;5.20;99.90;5.70;96227.00;;;;5029824;28;20197;-86
2023/02/24 01:40:19;;;;;;;22.67;15.07;;;4.50;99.90;5.80;96218.00;;;;5032924;28;20216;-86
2023/02/24 01:43:10;;;;;;;23.13;14.47;;;4.50;99.90;5.90;96219.00;;;;5032661;28;20205;-86
2023/02/24 01:45:59;;;;;;;23.00;16.03;;;4.60;99.90;5.80;96215.00;;;;5036180;28;20217;-86
2023/02/24 01:48:48;;;;;;;26.87;15.70;;;4.60;99.90;5.70;96212.00;;;;5036039;28;20279;-86
2023/02/24 01:51:43;;;;;;;20.70;14.43;;;4.60;99.90;5.80;96212.00;;;;5042561;28;20212;-85
2023/02/24 01:54:37;;;;;;;19.70;13.57;;;4.80;99.90;5.40;96209.00;;;;5038044;28;20247;-85
2023/02/24 01:57:31;;;;;;;21.47;14.10;;;4.60;99.90;5.00;96212.00;;;;5035574;28;20623;-86
2023/02/24 02:00:36;;;;;;;20.33;13.83;;;4.40;99.90;4.90;96201.00;;;;5043185;28;20225;-86
2023/02/24 02:03:29;;;;;;;19.10;13.27;;;4.30;99.90;4.80;96212.00;;;;5043363;28;20424;-86
2023/02/24 02:06:17;;;;;;;23.10;14.87;;;4.20;99.90;5.20;96205.00;;;;5037851;28;20517;-85
2023/02/24 02:09:08;;;;;;;26.33;15.97;;;4.20;99.90;5.40;96211.00;;;;5041362;28;20435;-85
2023/02/24 02:11:57;;;;;;;25.17;14.63;;;4.20;99.90;5.50;96216.00;;;;5036843;28;20211;-86
2023/02/24 02:14:52;;;;;;;26.77;15.10;;;4.30;99.90;5.60;96227.00;;;;5038250;28;20962;-86
2023/02/24 02:17:53;;;;;;;25.77;15.23;;;4.30;99.90;5.60;96216.00;;;;5044957;28;20432;-86
2023/02/24 02:21:23;;;;;;;21.50;15.23;;;4.30;99.90;5.20;96216.00;;;;5048161;28;20466;-86
2023/02/24 02:24:27;;;;;;;23.10;14.40;;;4.30;99.90;5.20;96219.00;;;;5002005;28;20287;-86
2023/02/24 02:28:15;;;;;;;21.70;13.13;;;6.00;99.90;5.60;96230.00;;;;5037855;28;20200;-86
2023/02/24 02:31:49;;;;;;;23.60;14.67;;;4.30;99.90;5.40;96219.00;;;;5045483;28;20213;-86
2023/02/24 02:34:49;;;;;;;26.33;14.97;;;4.30;99.90;5.20;96213.00;;;;5042605;28;21010;-86
2023/02/24 02:37:49;;;;;;;21.63;15.03;;;4.30;99.90;5.50;96208.00;;;;5034271;28;20452;-86
2023/02/24 02:40:44;;;;;;;23.80;14.80;;;4.30;99.90;5.70;96209.00;;;;5045681;28;20224;-86
2023/02/24 02:43:43;;;;;;;24.93;15.13;;;4.40;99.90;5.70;96212.00;;;;5038618;28;20468;-87
2023/02/24 02:46:38;;;;;;;20.30;13.40;;;5.20;99.90;5.30;96205.00;;;;5035803;28;20244;-86
2023/02/24 02:49:34;;;;;;;20.40;14.03;;;4.40;99.90;5.40;96208.00;;;;5035410;28;20197;-86
2023/02/24 02:52:33;;;;;;;22.77;14.80;;;4.40;99.90;5.50;96213.00;;;;5044138;28;20458;-86
2023/02/24 02:55:30;;;;;;;31.27;14.73;;;4.40;99.90;5.50;96209.00;;;;5040475;28;20653;-86
2023/02/24 02:58:26;;;;;;;22.60;15.00;;;4.40;99.90;5.40;96201.00;;;;5042583;28;20197;-86
2023/02/24 03:01:19;;;;;;;24.90;13.87;;;5.40;99.90;5.20;96205.00;;;;5044136;28;20213;-86
2023/02/24 03:04:15;;;;;;;21.37;12.73;;;5.00;99.90;5.10;96196.00;;;;5032171;28;20429;-86
2023/02/24 03:07:06;;;;;;;19.90;14.50;;;4.30;99.90;5.20;96195.00;;;;5036687;28;20236;-86
2023/02/24 03:10:00;;;;;;;24.97;14.23;;;4.70;99.90;5.40;96197.00;;;;5034239;28;20440;-86
2023/02/24 03:12:54;;;;;;;28.80;13.77;;;4.30;99.90;5.40;96194.00;;;;5040253;28;20440;-86
2023/02/24 03:15:44;;;;;;;28.97;15.97;;;4.30;99.90;5.10;96198.00;;;;5042335;28;20452;-87
2023/02/24 03:18:39;;;;;;;19.70;12.50;;;4.40;99.90;4.70;96195.00;;;;5034716;28;20440;-86
2023/02/24 03:21:33;;;;;;;21.57;14.27;;;4.10;99.90;5.10;96198.00;;;;5040532;28;20456;-86
2023/02/24 03:24:23;;;;;;;20.27;16.10;;;4.10;99.90;5.40;96206.00;;;;5031450;28;20756;-87
2023/02/24 03:27:18;;;;;;;26.00;15.53;;;4.20;99.90;5.70;96206.00;;;;5035786;28;20443;-86
2023/02/24 03:30:19;;;;;;;26.57;16.00;;;4.30;99.90;5.80;96198.00;;;;5045458;28;20205;-86
2023/02/24 03:33:16;;;;;;;23.33;14.23;;;4.30;99.90;5.90;96200.00;;;;5030548;28;20448;-86
2023/02/24 03:36:06;;;;;;;23.73;14.63;;;4.40;99.90;5.80;96190.00;;;;5034602;28;20220;-86
2023/02/24 03:38:57;;;;;;;23.90;14.67;;;4.70;99.90;5.70;96189.00;;;;5036615;28;20193;-87
2023/02/24 03:41:53;;;;;;;25.60;15.23;;;4.50;99.90;5.50;96186.00;;;;5042526;28;20606;-86
2023/02/24 03:44:44;;;;;;;22.87;14.23;;;4.90;99.90;5.40;96178.00;;;;5047565;28;20415;-86
2023/02/24 03:47:34;;;;;;;22.00;13.47;;;4.40;99.90;5.40;96180.00;;;;5033157;28;20614;-86
2023/02/24 03:50:25;;;;;;;21.37;15.10;;;4.40;99.90;5.30;96178.00;;;;5033931;28;20201;-86
2023/02/24 03:53:31;;;;;;;25.73;13.37;;;4.30;99.90;5.30;96175.00;;;;5034580;28;20435;-87
2023/02/24 03:56:29;;;;;;;24.13;14.13;;;4.30;99.90;5.10;96170.00;;;;5034620;28;20224;-86
2023/02/24 03:59:34;;;;;;;23.43;13.60;;;4.20;99.90;5.40;96172.00;;;;5031666;28;20463;-87
2023/02/24 04:02:30;;;;;;;28.90;14.47;;;4.20;99.90;5.40;96175.00;;;;5029309;28;20475;-86
2023/02/24 04:05:22;;;;;;;22.77;13.80;;;4.30;99.90;5.20;96165.00;;;;5030032;28;20236;-86
2023/02/24 04:08:11;;;;;;;21.90;14.27;;;4.30;99.90;5.40;96163.00;;;;5033491;28;20910;-86
2023/02/24 04:11:12;;;;;;;25.33;14.80;;;4.30;99.90;5.40;96163.00;;;;5036118;28;20457;-86
2023/02/24 04:14:06;;;;;;;17.73;12.67;;;4.30;99.90;5.30;96154.00;;;;5037772;28;20943;-86
2023/02/24 04:17:02;;;;;;;16.83;12.53;;;4.20;99.90;5.10;96163.00;;;;5036716;28;20840;-86
2023/02/24 04:19:59;;;;;;;20.00;13.47;;;4.20;99.90;5.00;96166.00;;;;5040363;28;20428;-86
2023/02/24 04:22:53;;;;;;;22.27;14.17;;;4.10;99.90;5.20;96166.00;;;;5041495;28;20510;-87
2023/02/24 04:25:46;;;;;;;18.50;13.50;;;4.10;99.90;5.30;96161.00;;;;5040379;28;20460;-86
2023/02/24 04:28:36;;;;;;;20.30;13.73;;;4.10;99.90;5.50;96164.00;;;;5038930;28;20462;-86
2023/02/24 04:31:26;;;;;;;24.67;15.23;;;4.20;99.90;5.50;96156.00;;;;5043439;28;20223;-86
2023/02/24 04:34:18;;;;;;;22.80;13.27;;;4.20;99.90;5.30;96156.00;;;;5043230;28;20449;-86
2023/02/24 04:37:09;;;;;;;20.30;12.83;;;4.70;99.90;4.70;96157.00;;;;5041813;28;20221;-86
2023/02/24 04:39:58;;;;;;;18.47;11.60;;;4.10;99.90;4.40;96150.00;;;;5037214;28;20427;-86
2023/02/24 04:42:47;;;;;;;23.97;14.30;;;3.80;99.90;4.60;96149.00;;;;5037130;28;20517;-87
2023/02/24 04:45:38;;;;;;;28.77;14.63;;;3.70;99.90;4.90;96147.00;;;;5040185;28;20452;-88
2023/02/24 04:48:29;;;;;;;24.40;13.77;;;4.10;99.90;5.00;96138.00;;;;5035320;28;20444;-88
2023/02/24 04:51:19;;;;;;;22.10;13.83;;;4.10;99.90;5.20;96140.00;;;;5032590;28;20434;-87
2023/02/24 04:54:16;;;;;;;20.70;14.00;;;3.80;99.90;5.00;96138.00;;;;5036186;28;20427;-86
2023/02/24 04:57:06;;;;;;;27.27;14.33;;;3.90;99.90;5.00;96140.00;;;;5031529;28;21059;-88
2023/02/24 04:59:56;;;;;;;21.97;12.53;;;3.90;99.90;5.10;96138.00;;;;5035427;28;20435;-87
2023/02/24 05:02:46;;;;;;;22.67;11.87;;;4.00;99.90;4.90;96119.00;;;;5034164;28;20483;-87
2023/02/24 05:05:35;;;;;;;17.20;13.13;;;3.90;99.90;4.80;96115.00;;;;5035927;28;20236;-87
2023/02/24 05:08:26;;;;;;;16.27;10.30;;;3.90;99.90;4.30;96116.00;;;;5043242;28;20205;-87
2023/02/24 05:11:17;;;;;;;16.53;10.70;;;3.80;99.90;4.40;96123.00;;;;5031061;28;20424;-86
2023/02/24 05:14:07;;;;;;;19.13;12.87;;;3.70;99.90;4.60;96127.00;;;;5039066;28;20440;-88
2023/02/24 05:16:59;;;;;;;24.47;13.37;;;3.70;99.90;4.70;96121.00;;;;5035187;28;20479;-86
2023/02/24 05:22:54;;;;;;;20.50;13.17;;;3.80;99.90;4.50;96111.00;;;;5034669;28;20542;-86
2023/02/24 05:25:43;;;;;;;21.17;13.63;;;4.70;99.90;4.60;96119.00;;;;5027234;28;20449;-87
2023/02/24 05:28:34;;;;;;;21.63;12.03;;;3.70;99.90;4.80;96107.00;;;;5029130;28;20432;-87
2023/02/24 05:31:27;;;;;;;22.57;11.87;;;3.60;99.90;4.50;96108.00;;;;5032546;28;20961;-87
2023/02/24 05:34:16;;;;;;;18.20;12.57;;;4.60;99.90;4.50;96101.00;;;;5037321;28;20553;-87
2023/02/24 05:37:09;;;;;;;19.70;12.10;;;3.70;99.90;4.80;96100.00;;;;5028503;28;20483;-87
2023/02/24 05:39:59;;;;;;;15.03;10.97;;;3.70;99.90;5.10;96103.00;;;;5030017;28;20432;-87
2023/02/24 05:42:47;;;;;;;16.23;11.90;;;3.80;99.90;5.20;96093.00;;;;5029885;28;20862;-86
2023/02/24 05:45:37;;;;;;;26.00;13.80;;;5.90;99.90;5.20;96082.00;;;;5036852;28;20449;-86
2023/02/24 05:48:27;;;;;;;24.93;13.93;;;4.00;99.90;5.30;96093.00;;;;5031378;28;20201;-86
2023/02/24 05:51:16;;;;;;;18.37;12.13;;;4.00;99.90;5.20;96084.00;;;;5029966;28;20514;-87
2023/02/24 05:54:07;;;;;;;16.23;10.93;;;4.10;99.90;4.80;96087.00;;;;5033733;28;20435;-87
2023/02/24 05:57:00;;;;;;;22.77;12.60;;;4.00;99.90;4.60;96086.00;;;;5036497;28;20456;-87
2023/02/24 05:59:50;;;;;;;18.60;12.33;;;3.90;99.90;4.90;96088.00;;;;5034149;28;20440;-86
2023/02/24 06:02:48;;;;;;;15.93;11.07;;;3.80;99.90;4.80;96094.00;;;;5038394;28;20451;-87
2023/02/24 06:05:38;;;;;;;19.00;11.50;;;3.80;99.90;4.70;96103.00;;;;5031194;28;20533;-87
2023/02/24 06:08:27;;;;;;;18.97;12.63;;;3.70;99.90;4.90;96106.00;;;;5028344;28;20424;-87
2023/02/24 06:11:17;;;;;;;18.50;12.57;;;3.70;99.90;4.90;96102.00;;;;5028366;28;20486;-87
2023/02/24 06:14:08;;;;;;;19.83;10.80;;;3.70;99.90;5.00;96101.00;;;;5028261;28;20967;-88
2023/02/24 06:16:59;;;;;;;19.60;12.60;;;3.80;99.90;4.80;96094.00;;;;5039730;28;20475;-87
2023/02/24 06:19:52;;;;;;;17.20;12.33;;;3.70;99.90;5.00;96093.00;;;;5031804;28;20942;-87
2023/02/24 06:22:42;;;;;;;15.63;11.63;;;3.80;99.90;5.00;96089.00;;;;5031444;28;20471;-87
2023/02/24 06:25:32;;;;;;;18.67;11.37;;;3.80;99.90;4.90;96095.00;;;;5026909;28;20448;-87
2023/02/24 06:28:21;;;;;;;14.73;10.87;;;3.80;99.90;4.80;96091.00;;;;5033329;28;20447;-86
2023/02/24 06:31:10;;;;;;;12.23;9.63;;;3.80;99.90;4.30;96088.00;;;;5032933;28;20424;-87
2023/02/24 06:33:59;;;;;;;19.20;11.87;;;3.70;99.90;4.30;96089.00;;;;5044453;28;20431;-87
2023/02/24 06:36:50;;;;;;;17.43;11.70;;;3.60;99.90;4.40;96087.00;;;;5031176;28;20440;-87
2023/02/24 06:39:39;;;;;;;16.30;11.10;;;5.10;99.90;4.70;96085.00;;;;5042210;28;20439;-88
2023/02/24 06:42:27;;;;;;;17.03;11.83;;;3.60;99.90;4.90;96085.00;;;;5037810;28;20440;-87
2023/02/24 06:45:17;;;;;;;17.30;12.17;;;3.80;99.90;4.80;96076.00;;;;5038718;28;20538;-88
2023/02/24 06:48:07;;;;;;;15.17;10.20;;;3.80;99.90;4.70;96077.00;;;;5045302;28;20434;-88
2023/02/24 06:50:56;;;;;;;15.13;11.40;;;3.80;99.90;4.50;96075.00;;;;5043356;28;20415;-86
2023/02/24 06:53:47;;;;;;;20.70;11.63;;;3.70;99.90;4.70;96087.00;;;;5040256;28;20471;-86
2023/02/24 06:56:38;;;;;;;16.53;10.40;;;4.30;99.90;4.80;96075.00;;;;5039693;28;20478;-87
2023/02/24 06:59:28;;;;;;;21.80;11.10;;;3.80;99.90;4.80;96078.00;;;;5046816;28;20431;-88
2023/02/24 07:02:17;;;;;;;16.80;10.00;;;3.80;99.90;4.80;96075.00;;;;5048318;28;20431;-87
2023/02/24 07:05:13;;;;;;;20.10;11.00;;;4.10;99.90;5.00;96080.00;;;;5038733;28;21003;-87
2023/02/24 07:08:02;;;;;;;16.73;10.77;;;4.00;99.90;5.10;96072.00;;;;5039977;28;20524;-87
2023/02/24 07:10:58;;;;;;;15.90;9.97;;;4.10;99.90;5.00;96077.00;;;;5036189;28;20906;-87
2023/02/24 07:13:49;;;;;;;19.77;10.33;;;4.10;99.90;5.30;96078.00;;;;5043655;28;20444;-86
2023/02/24 07:16:43;;;;;;;17.37;11.53;;;4.10;99.90;5.20;96070.00;;;;5035257;28;20475;-86
2023/02/24 07:19:33;;;;;;;14.80;11.00;;;4.10;99.90;5.10;96078.00;;;;5036675;28;20435;-87
2023/02/24 07:22:23;;;;;;;16.37;11.10;;;4.10;99.90;4.90;96078.00;;;;5042250;28;20435;-86
2023/02/24 07:25:29;;;;;;;17.17;10.57;;;5.60;99.90;5.00;96073.00;;;;5041417;28;20551;-86
2023/02/24 07:28:19;;;;;;;14.83;8.80;;;4.10;99.90;5.10;96073.00;;;;5044215;28;21052;-86
2023/02/24 07:31:11;;;;;;;14.93;8.23;;;5.30;99.90;5.00;96072.00;;;;5037214;28;20938;-88
2023/02/24 07:34:01;;;;;;;19.77;10.23;;;4.10;99.90;5.20;96068.00;;;;5035810;28;20439;-87
2023/02/24 07:36:53;;;;;;;12.37;9.00;;;4.20;99.90;5.30;96067.00;;;;5040558;28;20467;-87
2023/02/24 07:39:42;;;;;;;16.90;11.70;;;4.30;99.90;5.50;96078.00;;;;5036616;28;20201;-86
2023/02/24 07:42:34;;;;;;;15.97;10.53;;;4.30;99.90;5.70;96069.00;;;;5036840;28;20505;-86
2023/02/24 07:45:24;;;;;;;16.43;10.57;;;4.50;99.90;6.20;96068.00;;;;5038095;28;20460;-87
2023/02/24 07:48:14;;;;;;;18.93;11.23;;;4.70;99.90;6.50;96063.00;;;;5042164;28;20212;-86
2023/02/24 07:51:07;;;;;;;12.37;9.07;;;4.90;99.90;6.70;96054.00;;;;5039844;28;20213;-87
2023/02/24 07:54:00;;;;;;;14.33;9.50;;;5.10;99.90;6.50;96041.00;;;;5037088;28;20730;-87
2023/02/24 07:56:55;;;;;;;15.17;10.17;;;5.20;99.90;6.70;96047.00;;;;5028720;28;20221;-87
2023/02/24 07:59:45;;;;;;;21.93;10.73;;;5.40;99.90;6.90;96045.00;;;;5037088;28;20677;-86
2023/02/24 08:02:37;;;;;;;18.47;11.17;;;5.50;99.90;7.10;96040.00;;;;5035872;28;20230;-86
2023/02/24 08:05:26;;;;;;;14.83;10.13;;;5.70;99.90;7.20;96025.00;;;;5039619;28;20239;-87
2023/02/24 08:08:19;;;;;;;12.33;8.93;;;5.80;99.90;6.80;96017.00;;;;5030897;28;20594;-89
2023/02/24 08:11:09;;;;;;;15.57;10.17;;;5.80;99.90;7.20;96030.00;;;;5039442;28;20741;-88
2023/02/24 08:14:49;;;;;;;16.43;10.07;;;5.90;99.90;7.60;96023.00;;;;5031188;28;20208;-87
2023/02/24 08:17:40;;;;;;;15.83;9.17;;;6.00;99.90;8.00;96026.00;;;;5041093;28;20216;-88
2023/02/24 08:20:35;;;;;;;19.80;11.13;;;6.30;99.90;8.10;96027.00;;;;5031759;28;20208;-87
2023/02/24 08:23:24;;;;;;;16.67;10.57;;;6.50;99.90;8.50;96023.00;;;;5038896;28;20699;-86
2023/02/24 08:26:13;;;;;;;14.60;9.80;;;6.80;99.90;8.80;96026.00;;;;5037500;28;20225;-86
2023/02/24 08:29:06;;;;;;;15.93;9.53;;;7.00;99.90;8.70;96011.00;;;;5034858;28;20201;-86
2023/02/24 08:31:55;;;;;;;14.47;9.57;;;7.20;99.90;9.00;96011.00;;;;5033282;28;20318;-86
2023/02/24 08:34:48;;;;;;;17.07;9.53;;;7.60;99.90;9.10;96005.00;;;;5040608;28;20293;-86
2023/02/24 08:37:39;;;;;;;14.40;10.43;;;7.60;99.90;9.20;96002.00;;;;5033861;28;20703;-85
2023/02/24 08:40:38;;;;;;;15.53;10.00;;;7.70;99.90;9.50;96004.00;;;;5036346;28;20226;-86
2023/02/24 08:43:33;;;;;;;13.20;9.30;;;7.80;99.90;9.80;96000.00;;;;5034959;28;20565;-86
2023/02/24 08:46:25;;;;;;;14.77;9.20;;;8.10;99.90;9.50;95993.00;;;;5035320;28;20228;-87
2023/02/24 08:49:15;;;;;;;16.20;10.33;;;8.20;99.90;9.80;96001.00;;;;5033936;28;20553;-84
2023/02/24 08:52:06;;;;;;;16.97;12.07;;;8.30;99.90;9.80;95995.00;;;;5036383;28;20193;-86
2023/02/24 08:54:58;;;;;;;14.33;9.70;;;8.40;99.90;10.10;95995.00;;;;5038782;28;20207;-86
2023/02/24 08:57:50;;;;;;;16.97;9.93;;;8.50;99.90;10.20;95994.00;;;;5033691;28;20204;-86
2023/02/24 09:00:48;;;;;;;17.17;9.23;;;8.60;99.90;10.20;95980.00;;;;5036548;28;20204;-86
2023/02/24 09:03:44;;;;;;;17.33;11.07;;;8.70;99.90;10.30;95980.00;;;;5043147;28;20201;-86
2023/02/24 09:06:43;;;;;;;12.80;9.10;;;8.80;99.90;10.30;95984.00;;;;5044511;28;20706;-87
2023/02/24 09:09:36;;;;;;;16.37;9.47;;;8.90;99.90;10.60;95975.00;;;;5040810;28;20204;-86
2023/02/24 09:12:27;;;;;;;14.83;9.43;;;9.10;99.90;11.10;95976.00;;;;5037599;28;20834;-86
2023/02/24 09:15:16;;;;;;;14.80;8.63;;;9.30;99.90;10.90;95965.00;;;;5029146;28;20224;-86
2023/02/24 09:18:07;;;;;;;12.80;9.07;;;9.40;99.90;11.50;95963.00;;;;5037776;28;20204;-85
2023/02/24 09:21:14;;;;;;;18.40;9.07;;;9.60;99.90;12.00;95952.00;;;;5040560;28;20720;-86
2023/02/24 09:24:06;;;;;;;12.00;9.57;;;9.90;99.90;12.50;95963.00;;;;5036685;28;20800;-87
2023/02/24 09:26:57;;;;;;;14.70;9.33;;;10.20;99.90;12.90;95949.00;;;;5033753;28;20602;-86
2023/02/24 09:29:49;;;;;;;14.87;8.83;;;10.50;99.90;12.80;95956.00;;;;5039254;28;20215;-86
2023/02/24 09:32:39;;;;;;;14.57;9.23;;;10.80;99.90;12.70;95944.00;;;;5040286;28;20204;-87
2023/02/24 09:35:29;;;;;;;16.60;10.70;;;11.00;99.90;13.00;95946.00;;;;5041640;28;20224;-86
2023/02/24 09:38:56;;;;;;;14.60;8.03;;;11.10;99.90;13.40;95943.00;;;;5043096;28;20204;-86
2023/02/24 09:44:47;;;;;;;12.90;8.53;;;11.50;99.90;13.80;95940.00;;;;5038893;28;20239;-85
2023/02/24 09:47:50;;;;;;;12.47;9.87;;;11.70;99.90;14.00;95941.00;;;;5034698;28;20703;-87
2023/02/24 09:50:59;;;;;;;15.27;9.13;;;11.90;99.90;14.40;95933.00;;;;5033364;28;20200;-86
2023/02/24 09:53:55;;;;;;;15.13;9.17;;;12.10;99.90;14.60;95927.00;;;;5030674;28;20243;-86
2023/02/24 09:57:06;;;;;;;17.43;8.97;;;12.30;99.90;14.70;95932.00;;;;5034001;28;20232;-85
2023/02/24 10:00:23;;;;;;;17.50;9.63;;;12.50;99.90;14.90;95936.00;;;;5037672;28;20267;-86
2023/02/24 10:03:19;;;;;;;19.93;9.93;;;12.70;99.90;15.10;95927.00;;;;5044824;28;20212;-87
2023/02/24 10:06:20;;;;;;;11.33;8.87;;;12.90;99.90;15.00;95931.00;;;;5035888;28;20605;-86
2023/02/24 10:09:22;;;;;;;18.97;8.77;;;13.10;99.90;15.10;95921.00;;;;5046232;28;20703;-85
2023/02/24 10:12:18;;;;;;;11.27;7.47;;;13.10;99.90;15.40;95921.00;;;;5034167;28;20306;-86
2023/02/24 10:15:18;;;;;;;13.47;8.73;;;13.30;99.90;15.90;95912.00;;;;5032457;28;20232;-86
2023/02/24 10:18:31;;;;;;;12.43;7.70;;;13.50;99.90;16.10;95911.00;;;;5035152;28;20205;-87
2023/02/24 10:21:29;;;;;;;10.90;7.37;;;;;16.00;95909.00;;;;5041502;28;20688;-84
2023/02/24 10:24:23;;;;;;;12.97;8.53;;;;;16.60;95908.00;;;;5034207;28;20194;-87
2023/02/24 10:27:16;;;;;;;34.40;19.70;;;;;16.60;95903.00;;;;5039914;28;20217;-86
2023/02/24 10:30:18;;;;;;;13.10;8.33;;;;;17.00;95896.00;;;;5040702;28;20212;-87
2023/02/24 10:33:17;;;;;;;29.90;17.13;;;;;17.40;95897.00;;;;5039383;28;20680;-86
2023/02/24 10:36:09;;;;;;;14.23;10.20;;;;;17.70;95886.00;;;;5041201;28;20736;-85
2023/02/24 10:39:07;;;;;;;16.53;10.40;;;;;17.70;95882.00;;;;5041537;28;20244;-86
2023/02/24 10:42:14;;;;;;;11.33;8.47;;;;;17.70;95882.00;;;;5035785;28;20241;-86
2023/02/24 10:45:16;;;;;;;9.23;6.00;;;;;17.90;95878.00;;;;5042694;28;20204;-88
2023/02/24 10:48:07;;;;;;;17.87;7.40;;;;;18.40;95872.00;;;;5037580;28;20197;-88
2023/02/24 10:51:08;;;;;;;8.03;6.03;;;;;18.60;95867.00;;;;5038676;28;20212;-88
2023/02/24 10:54:32;;;;;;;8.77;5.93;;;;;18.50;95856.00;;;;5032413;28;20694;-87
2023/02/24 10:57:35;;;;;;;7.37;5.43;;;;;19.00;95850.00;;;;5040725;28;20203;-88
2023/02/24 11:00:50;;;;;;;9.50;6.63;;;;;19.50;95837.00;;;;5043283;23;20253;-66
2023/02/24 11:03:46;;;;;;;9.00;6.20;;;;;19.40;95817.00;;;;5043524;28;20282;-67
2023/02/24 11:06:56;;;;;;;12.77;6.00;;;;;20.00;95828.00;;;;5042120;28;20197;-66
2023/02/24 11:09:51;;;;;;;7.97;6.20;;;;;19.90;95828.00;;;;5046734;28;20200;-66
2023/02/24 11:19:06;;;;;;;14.30;8.60;;;17.70;77.10;19.10;95813.00;;;;5046904;28;20204;-66
2023/02/24 11:21:56;;;;;;;9.80;7.60;;;17.60;75.50;18.50;95809.00;;;;5041361;28;20319;-66
2023/02/24 11:24:46;;;;;;;11.33;7.30;;;17.50;75.60;18.00;95797.00;;;;5042438;28;20208;-66
2023/02/24 11:27:35;;;;;;;13.43;8.50;;;17.00;75.10;18.10;95790.00;;;;5039042;28;20684;-66
2023/02/24 11:30:37;;;;;;;13.53;7.90;;;16.80;77.30;17.80;95791.00;;;;5044039;28;20204;-66
2023/02/24 11:33:41;;;;;;;13.47;9.07;;;16.70;76.20;17.90;95783.00;;;;5042165;28;20220;-66
2023/02/24 11:36:42;;;;;;;14.07;9.03;;;16.50;77.50;18.20;95775.00;;;;5034835;28;20227;-66
2023/02/24 11:39:48;;;;;;;16.73;7.90;;;16.50;78.50;18.50;95778.00;;;;5047989;28;20251;-66
2023/02/24 11:42:45;;;;;;;12.50;8.63;;;16.60;79.30;17.50;95751.00;;;;5043880;28;20224;-66
2023/02/24 11:45:39;;;;;;;9.97;7.33;;;16.60;76.40;18.30;95755.00;;;;5042563;28;20198;-66
2023/02/24 11:48:33;;;;;;;14.27;8.73;;;16.50;77.00;19.30;95739.00;;;;5037291;28;20220;-66
2023/02/24 11:51:27;;;;;;;16.30;8.93;;;16.80;78.20;20.00;95723.00;;;;5039804;28;20227;-66
2023/02/24 11:54:17;;;;;;;11.73;8.00;;;17.20;76.80;20.10;95724.00;;;;5041546;28;20564;-66
2023/02/24 11:57:14;;;;;;;11.43;8.20;;;17.80;76.20;19.20;95724.00;;;;5043912;28;20209;-67
2023/02/24 12:00:12;;;;;;;11.43;7.63;;;18.20;73.10;18.60;95698.00;;;;5044695;28;20201;-66
2023/02/24 12:03:08;;;;;;;11.77;8.50;;;17.90;70.70;19.90;95700.00;;;;5046158;28;20225;-65
2023/02/24 12:06:09;;;;;;;13.43;8.43;;;18.10;71.40;19.10;95686.00;;;;5051376;28;20676;-65
2023/02/24 12:09:08;;;;;;;10.70;8.03;;;18.10;70.20;19.80;95683.00;;;;5044177;28;20205;-66
2023/02/24 12:12:08;;;;;;;11.90;8.43;;;18.30;69.60;21.00;95684.00;;;;5040017;28;20220;-66
2023/02/24 12:15:00;;;;;;;16.47;8.30;;;18.70;70.60;20.30;95672.00;;;;5041597;28;20223;-65
2023/02/24 12:17:57;;;;;;;12.07;8.50;;;18.90;68.30;20.50;95670.00;;;;5045853;28;20198;-65
2023/02/24 12:20:52;;;;;;;13.10;9.43;;;18.70;68.20;21.10;95668.00;;;;5049124;28;20196;-66
2023/02/24 12:23:45;;;;;;;12.80;9.47;;;18.80;69.50;21.10;95656.00;;;;5044927;28;20220;-66
2023/02/24 12:26:43;;;;;;;13.13;8.87;;;19.00;68.50;20.70;95654.00;;;;5045695;28;20203;-69
2023/02/24 12:29:53;;;;;;;12.00;8.97;;;19.30;67.60;20.70;95650.00;;;;5046013;28;20722;-65
2023/02/24 12:33:01;;;;;;;14.93;10.17;;;19.50;67.20;20.50;95637.00;;;;5048579;28;20236;-65
2023/02/24 12:36:01;;;;;;;12.67;10.80;;;19.40;66.40;22.50;95641.00;;;;5049104;28;20230;-66
2023/02/24 12:39:05;;;;;;;16.53;11.87;;;19.80;67.50;23.10;95640.00;;;;5041540;28;20231;-67
2023/02/24 12:42:07;;;;;;;18.87;10.10;;;20.30;66.70;23.50;95635.00;;;;5042673;28;20217;-67
2023/02/24 12:45:04;;;;;;;18.73;10.43;;;20.80;65.20;23.90;95642.00;;;;5042218;28;20208;-67
2023/02/24 12:48:07;;;;;;;15.53;9.70;;;21.60;62.00;24.30;95643.00;;;;5043711;28;20450;-67
2023/02/24 12:51:06;;;;;;;20.17;10.63;;;21.70;62.90;24.20;95627.00;;;;5046367;28;20210;-66
2023/02/24 12:54:05;;;;;;;23.77;11.47;;;22.10;61.30;24.50;95630.00;;;;5044744;28;20212;-66
2023/02/24 12:57:06;;;;;;;14.97;10.53;;;22.40;60.10;25.10;95615.00;;;;5049762;28;20285;-66
2023/02/24 12:59:55;;;;;;;15.23;10.60;;;22.70;59.00;25.80;95605.00;;;;5049419;28;20221;-66
2023/02/24 13:02:52;;;;;;;14.53;9.37;;;;;25.20;95605.00;;;;5048690;28;20233;-66
2023/02/24 13:05:47;;;;;;;16.90;11.20;;;;;24.50;95605.00;;;;5041207;28;20621;-67
2023/02/24 13:08:48;;;;;;;12.03;8.80;;;;;22.90;95608.00;;;;5043931;28;20218;-66
2023/02/24 13:11:46;;;;;;;17.77;10.00;;;;;24.60;95585.00;;;;5044837;28;20212;-66
2023/02/24 13:14:36;;;;;;;12.20;8.77;;;;;24.60;95584.00;;;;5043949;28;20210;-66
2023/02/24 13:17:26;;;;;;;12.00;8.47;;;;;25.10;95580.00;;;;5046645;28;20314;-66